createdAt,value
2017-10-06T00:01:02.284Z,6.70
2017-10-06T00:03:30.597Z,6.70
2017-10-06T00:05:59.179Z,6.60
2017-10-06T00:08:27.474Z,6.60
2017-10-06T00:10:55.767Z,6.60
2017-10-06T00:13:24.076Z,6.70
2017-10-06T00:15:52.372Z,6.60
2017-10-06T00:18:20.699Z,6.60
2017-10-06T00:20:48.982Z,6.60
2017-10-06T00:23:18.028Z,6.70
2017-10-06T00:25:46.308Z,6.60
2017-10-06T00:28:14.587Z,6.60
2017-10-06T00:30:42.882Z,6.70
2017-10-06T00:33:11.163Z,6.70
2017-10-06T00:35:39.462Z,6.60
2017-10-06T00:38:07.740Z,6.60
2017-10-06T00:40:36.047Z,6.70
2017-10-06T00:43:04.459Z,6.70
2017-10-06T00:45:32.759Z,6.60
2017-10-06T00:48:01.390Z,6.60
2017-10-06T00:50:29.708Z,6.60
2017-10-06T00:52:57.992Z,6.70
2017-10-06T00:55:26.316Z,6.60
2017-10-06T00:57:54.606Z,6.60
2017-10-06T01:00:23.683Z,6.60
2017-10-06T01:02:51.995Z,6.60
2017-10-06T01:05:20.280Z,6.60
2017-10-06T01:07:48.571Z,6.60
2017-10-06T01:10:16.860Z,6.60
2017-10-06T01:12:45.131Z,6.60
2017-10-06T01:15:13.443Z,6.60
2017-10-06T01:17:41.755Z,6.60
2017-10-06T01:20:10.808Z,6.60
2017-10-06T01:22:39.088Z,6.60
2017-10-06T01:25:07.370Z,6.60
2017-10-06T01:27:35.651Z,6.60
2017-10-06T01:30:03.990Z,6.60
2017-10-06T01:32:32.276Z,6.60
2017-10-06T01:35:00.563Z,6.50
2017-10-06T01:37:28.925Z,6.50
2017-10-06T01:39:57.222Z,6.50
2017-10-06T01:42:25.534Z,6.50
2017-10-06T01:44:53.820Z,6.50
2017-10-06T01:47:22.149Z,6.40
2017-10-06T01:49:50.454Z,6.40
2017-10-06T01:52:18.751Z,6.30
2017-10-06T01:54:47.066Z,6.30
2017-10-06T01:57:15.393Z,6.30
2017-10-06T01:59:43.704Z,6.20
2017-10-06T02:02:12.759Z,6.20
2017-10-06T02:04:41.052Z,6.20
2017-10-06T02:07:09.342Z,6.30
2017-10-06T02:09:37.629Z,6.20
2017-10-06T02:12:05.919Z,6.30
2017-10-06T02:14:34.251Z,6.20
2017-10-06T02:17:03.310Z,6.20
2017-10-06T02:19:31.608Z,6.10
2017-10-06T02:21:59.898Z,6.10
2017-10-06T02:24:28.183Z,6.10
2017-10-06T02:26:56.465Z,6.10
2017-10-06T02:29:24.751Z,6.10
2017-10-06T02:31:53.070Z,6.20
2017-10-06T02:34:21.352Z,6.10
2017-10-06T02:36:49.645Z,6.10
2017-10-06T02:39:18.703Z,6.10
2017-10-06T02:41:46.997Z,6.00
2017-10-06T02:44:15.283Z,6.10
2017-10-06T02:46:43.560Z,6.10
2017-10-06T02:49:11.857Z,6.10
2017-10-06T02:51:40.143Z,6.10
2017-10-06T02:54:08.418Z,6.10
2017-10-06T02:56:36.713Z,6.10
2017-10-06T02:59:05.003Z,6.10
2017-10-06T03:01:33.291Z,6.00
2017-10-06T03:04:01.651Z,6.00
2017-10-06T03:06:29.958Z,6.00
2017-10-06T03:08:58.240Z,6.00
2017-10-06T03:11:27.300Z,6.00
2017-10-06T03:13:55.591Z,6.00
2017-10-06T03:16:23.867Z,6.00
2017-10-06T03:18:52.181Z,6.00
2017-10-06T03:21:20.472Z,6.00
2017-10-06T03:23:48.758Z,6.00
2017-10-06T03:26:17.041Z,6.00
2017-10-06T03:28:45.328Z,6.00
2017-10-06T03:31:13.606Z,6.00
2017-10-06T03:33:41.925Z,6.00
2017-10-06T03:36:10.227Z,6.00
2017-10-06T03:38:39.271Z,6.00
2017-10-06T03:41:07.561Z,6.00
2017-10-06T03:43:35.871Z,6.00
2017-10-06T03:46:04.191Z,6.00
2017-10-06T03:48:33.258Z,6.10
2017-10-06T03:51:01.797Z,6.10
2017-10-06T03:53:30.858Z,6.10
2017-10-06T03:55:59.155Z,6.10
2017-10-06T03:58:27.444Z,6.10
2017-10-06T04:00:55.772Z,6.10
2017-10-06T04:03:24.819Z,6.20
2017-10-06T04:05:53.131Z,6.10
2017-10-06T04:08:21.408Z,6.10
2017-10-06T04:10:49.690Z,6.20
2017-10-06T04:13:17.971Z,6.20
2017-10-06T04:15:46.267Z,6.20
2017-10-06T04:18:14.548Z,6.20
2017-10-06T04:20:42.843Z,6.20
2017-10-06T04:23:11.139Z,6.20
2017-10-06T04:25:39.432Z,6.20
2017-10-06T04:28:07.725Z,6.20
2017-10-06T04:30:35.998Z,6.20
2017-10-06T04:33:05.043Z,6.20
2017-10-06T04:35:33.363Z,6.10
2017-10-06T04:38:02.416Z,6.10
2017-10-06T04:40:31.303Z,6.10
2017-10-06T04:42:59.582Z,6.20
2017-10-06T04:45:27.874Z,6.10
2017-10-06T04:47:56.160Z,6.10
2017-10-06T04:50:24.447Z,6.10
2017-10-06T04:52:52.727Z,6.10
2017-10-06T04:55:21.022Z,6.10
2017-10-06T04:57:49.296Z,6.10
2017-10-06T05:00:18.343Z,6.00
2017-10-06T05:02:46.633Z,6.00
2017-10-06T05:05:14.910Z,6.00
2017-10-06T05:07:43.197Z,6.00
2017-10-06T05:10:11.484Z,6.10
2017-10-06T05:12:39.775Z,6.10
2017-10-06T05:15:08.067Z,6.10
2017-10-06T05:17:36.367Z,6.10
2017-10-06T05:20:04.661Z,6.10
2017-10-06T05:22:33.126Z,6.10
2017-10-06T05:25:01.430Z,6.10
2017-10-06T05:27:29.711Z,6.20
2017-10-06T05:29:58.134Z,6.10
2017-10-06T05:32:26.426Z,6.20
2017-10-06T05:34:54.721Z,6.10
2017-10-06T05:37:23.015Z,6.10
2017-10-06T05:39:52.077Z,6.10
2017-10-06T05:42:20.395Z,6.10
2017-10-06T05:44:48.695Z,6.10
2017-10-06T05:47:17.009Z,6.10
2017-10-06T05:49:46.057Z,6.10
2017-10-06T05:52:14.369Z,6.10
2017-10-06T05:54:42.706Z,6.10
2017-10-06T05:57:11.021Z,6.10
2017-10-06T05:59:39.368Z,6.10
2017-10-06T06:02:08.432Z,6.10
2017-10-06T06:04:36.724Z,6.10
2017-10-06T06:07:05.051Z,6.10
2017-10-06T06:09:34.110Z,6.10
2017-10-06T06:12:02.441Z,6.10
2017-10-06T06:14:31.515Z,6.10
2017-10-06T06:16:59.840Z,6.10
2017-10-06T06:19:28.915Z,6.20
2017-10-06T06:21:57.205Z,6.10
2017-10-06T06:24:25.503Z,6.20
2017-10-06T06:26:53.808Z,6.20
2017-10-06T06:29:22.858Z,6.20
2017-10-06T06:31:51.256Z,6.20
2017-10-06T06:34:19.590Z,6.20
2017-10-06T06:36:48.043Z,6.20
2017-10-06T06:39:16.327Z,6.20
2017-10-06T06:41:44.611Z,6.20
2017-10-06T06:44:12.906Z,6.30
2017-10-06T06:46:41.221Z,6.20
2017-10-06T06:49:09.543Z,6.20
2017-10-06T06:51:38.762Z,6.20
2017-10-06T06:54:07.100Z,6.20
2017-10-06T06:56:35.428Z,6.20
2017-10-06T06:59:04.549Z,6.20
2017-10-06T07:01:33.268Z,6.20
2017-10-06T07:04:01.614Z,6.20
2017-10-06T07:06:29.892Z,6.20
2017-10-06T07:08:58.210Z,6.20
2017-10-06T07:11:26.508Z,6.20
2017-10-06T07:13:54.886Z,6.20
2017-10-06T07:16:23.952Z,6.30
2017-10-06T07:18:52.308Z,6.30
2017-10-06T07:21:20.648Z,6.30
2017-10-06T07:23:48.941Z,6.30
2017-10-06T07:26:17.250Z,6.30
2017-10-06T07:28:46.440Z,6.40
2017-10-06T07:31:14.730Z,6.40
2017-10-06T07:33:43.032Z,6.50
2017-10-06T07:36:12.130Z,6.50
2017-10-06T07:38:40.415Z,6.40
2017-10-06T07:41:08.843Z,6.50
2017-10-06T07:43:37.135Z,6.50
2017-10-06T07:46:05.434Z,6.40
2017-10-06T07:48:33.778Z,6.40
2017-10-06T07:51:02.300Z,6.40
2017-10-06T07:53:30.608Z,6.40
2017-10-06T07:55:58.927Z,6.40
2017-10-06T07:58:27.215Z,6.50
2017-10-06T08:00:55.529Z,6.60
2017-10-06T08:03:23.831Z,6.60
2017-10-06T08:05:52.917Z,6.50
2017-10-06T08:08:21.241Z,6.50
2017-10-06T08:10:49.536Z,6.50
2017-10-06T08:13:17.852Z,6.40
2017-10-06T08:15:46.166Z,6.50
2017-10-06T08:18:14.460Z,6.50
2017-10-06T08:20:42.783Z,6.60
2017-10-06T08:23:11.847Z,6.70
2017-10-06T08:25:40.125Z,6.70
2017-10-06T08:28:08.454Z,6.70
2017-10-06T08:30:37.094Z,6.60
2017-10-06T08:33:05.388Z,6.50
2017-10-06T08:35:33.712Z,6.50
2017-10-06T08:38:02.039Z,6.40
2017-10-06T08:40:30.330Z,6.40
2017-10-06T08:42:58.788Z,6.50
2017-10-06T08:45:27.092Z,6.50
2017-10-06T08:47:56.150Z,6.60
2017-10-06T08:50:24.474Z,6.60
2017-10-06T08:52:52.818Z,6.70
2017-10-06T08:55:21.105Z,6.70
2017-10-06T08:57:49.393Z,6.70
2017-10-06T09:00:17.699Z,6.80
2017-10-06T09:02:46.033Z,6.70
2017-10-06T09:05:15.084Z,6.70
2017-10-06T09:07:43.378Z,6.70
2017-10-06T09:10:11.671Z,6.60
2017-10-06T09:12:39.979Z,6.60
2017-10-06T09:15:08.268Z,6.60
2017-10-06T09:17:36.551Z,6.60
2017-10-06T09:20:04.906Z,6.60
2017-10-06T09:22:33.265Z,6.70
2017-10-06T09:25:02.331Z,6.70
2017-10-06T09:27:32.060Z,6.60
2017-10-06T09:30:00.343Z,6.60
2017-10-06T09:32:28.635Z,6.70
2017-10-06T09:34:56.924Z,6.80
2017-10-06T09:37:25.233Z,6.80
2017-10-06T09:39:53.526Z,6.80
2017-10-06T09:42:21.831Z,6.80
2017-10-06T09:44:50.883Z,6.80
2017-10-06T09:47:19.163Z,6.80
2017-10-06T09:49:47.452Z,6.80
2017-10-06T09:52:16.514Z,6.70
2017-10-06T09:54:45.563Z,6.80
2017-10-06T09:57:13.852Z,6.70
2017-10-06T09:59:42.139Z,6.80
2017-10-06T10:02:11.071Z,6.80
2017-10-06T10:04:39.369Z,6.70
2017-10-06T10:07:07.671Z,6.70
2017-10-06T10:09:35.972Z,6.80
2017-10-06T10:12:05.023Z,6.80
2017-10-06T10:14:33.370Z,6.80
2017-10-06T10:17:03.416Z,7.00
2017-10-06T10:19:31.706Z,7.00
2017-10-06T10:21:59.991Z,7.00
2017-10-06T10:24:28.280Z,7.00
2017-10-06T10:26:56.559Z,7.00
2017-10-06T10:29:25.616Z,7.10
2017-10-06T10:31:53.908Z,7.10
2017-10-06T10:34:22.207Z,7.10
2017-10-06T10:36:50.502Z,7.20
2017-10-06T10:39:18.787Z,7.20
2017-10-06T10:41:47.067Z,7.20
2017-10-06T10:44:15.379Z,7.10
2017-10-06T10:46:43.659Z,7.00
2017-10-06T10:49:11.942Z,7.00
2017-10-06T10:51:40.486Z,7.00
2017-10-06T10:54:08.770Z,7.00
2017-10-06T10:56:37.054Z,6.90
2017-10-06T10:59:05.363Z,6.90
2017-10-06T11:01:33.648Z,7.00
2017-10-06T11:04:02.280Z,7.00
2017-10-06T11:06:30.566Z,7.10
2017-10-06T11:08:58.898Z,7.10
2017-10-06T11:11:27.943Z,7.00
2017-10-06T11:13:56.233Z,7.00
2017-10-06T11:16:24.660Z,7.00
2017-10-06T11:18:52.963Z,7.00
2017-10-06T11:21:22.046Z,7.30
2017-10-06T11:23:50.334Z,7.20
2017-10-06T11:26:18.656Z,7.20
2017-10-06T11:28:47.713Z,7.10
2017-10-06T11:31:16.759Z,7.00
2017-10-06T11:33:45.062Z,7.00
2017-10-06T11:36:13.384Z,7.00
2017-10-06T11:38:41.678Z,7.10
2017-10-06T11:41:09.953Z,7.10
2017-10-06T11:43:38.233Z,7.00
2017-10-06T11:46:06.535Z,6.90
2017-10-06T11:48:34.835Z,6.90
2017-10-06T11:51:03.409Z,6.90
2017-10-06T11:53:31.695Z,6.80
2017-10-06T11:55:59.978Z,6.90
2017-10-06T11:58:28.257Z,7.00
2017-10-06T12:00:57.319Z,7.30
2017-10-06T12:03:25.638Z,7.30
2017-10-06T12:05:54.765Z,7.30
2017-10-06T12:08:23.115Z,7.30
2017-10-06T12:10:51.496Z,7.40
2017-10-06T12:13:19.904Z,7.50
2017-10-06T12:15:48.281Z,7.40
2017-10-06T12:18:16.656Z,7.30
2017-10-06T12:20:45.024Z,7.20
2017-10-06T12:23:13.364Z,7.20
2017-10-06T12:25:41.736Z,7.20
2017-10-06T12:28:10.057Z,7.20
2017-10-06T12:30:38.443Z,7.20
2017-10-06T12:33:06.816Z,7.10
2017-10-06T12:35:35.176Z,7.20
2017-10-06T12:38:03.553Z,7.20
2017-10-06T12:40:31.915Z,7.20
2017-10-06T12:43:00.238Z,7.30
2017-10-06T12:45:29.396Z,7.30
2017-10-06T12:47:58.518Z,7.20
2017-10-06T12:50:27.604Z,7.20
2017-10-06T12:52:55.926Z,7.20
2017-10-06T12:55:24.314Z,7.20
2017-10-06T12:57:53.408Z,7.20
2017-10-06T13:00:21.730Z,7.20
2017-10-06T13:02:50.092Z,7.20
2017-10-06T13:05:19.198Z,7.20
2017-10-06T13:07:47.520Z,7.20
2017-10-06T13:10:15.851Z,7.10
2017-10-06T13:12:44.234Z,7.00
2017-10-06T13:15:13.366Z,7.00
2017-10-06T13:17:41.700Z,7.00
2017-10-06T13:20:10.078Z,7.00
2017-10-06T13:22:38.802Z,7.10
2017-10-06T13:25:07.179Z,7.30
2017-10-06T13:27:35.592Z,7.30
2017-10-06T13:30:03.968Z,7.40
2017-10-06T13:32:32.275Z,7.40
2017-10-06T13:35:00.553Z,7.40
2017-10-06T13:37:28.827Z,7.50
2017-10-06T13:39:57.118Z,7.40
2017-10-06T13:42:25.444Z,7.50
2017-10-06T13:44:53.876Z,7.50
2017-10-06T13:47:22.939Z,7.40
2017-10-06T13:49:51.224Z,7.40
2017-10-06T13:52:19.515Z,7.40
2017-10-06T13:54:47.799Z,7.50
2017-10-06T13:57:16.088Z,7.40
2017-10-06T13:59:44.382Z,7.40
2017-10-06T14:02:12.661Z,7.50
2017-10-06T14:04:40.948Z,7.50
2017-10-06T14:07:09.236Z,7.50
2017-10-06T14:09:37.697Z,7.70
2017-10-06T14:12:06.753Z,7.80
2017-10-06T14:14:35.041Z,7.80
2017-10-06T14:17:03.332Z,7.80
2017-10-06T14:19:31.648Z,7.70
2017-10-06T14:21:59.936Z,7.70
2017-10-06T14:24:28.250Z,7.70
2017-10-06T14:26:57.298Z,7.70
2017-10-06T14:29:25.591Z,7.70
2017-10-06T14:31:53.880Z,7.70
2017-10-06T14:34:22.182Z,7.70
2017-10-06T14:36:50.508Z,7.80
2017-10-06T14:39:19.546Z,7.70
2017-10-06T14:41:47.851Z,7.70
2017-10-06T14:44:16.140Z,7.80
2017-10-06T14:46:44.426Z,7.90
2017-10-06T14:49:12.715Z,8.00
2017-10-06T14:51:41.912Z,8.00
2017-10-06T14:54:10.194Z,8.00
2017-10-06T14:56:38.485Z,8.00
2017-10-06T14:59:06.783Z,7.90
2017-10-06T15:01:35.842Z,7.90
2017-10-06T15:04:04.921Z,8.00
2017-10-06T15:06:33.234Z,7.90
2017-10-06T15:09:02.651Z,8.00
2017-10-06T15:11:30.932Z,8.10
2017-10-06T15:13:59.354Z,8.00
2017-10-06T15:16:27.652Z,8.00
2017-10-06T15:18:55.926Z,7.90
